Aviation Digital Data Service (ADDS)

Output produced by METARs form (1904 UTC 16 October 2021)
found at http://www.aviationweather.gov/metar/data/
 
METAR text: RJEB 160700Z 15008KT 9999 FEW020 SCT150 BKN/// 12/05 Q1011
Conditions at: RJEB (MONBETSU AIRPORT, JP) observed 0700 UTC 16 October 2021
Temperature: 12.0°C (54°F)
Dewpoint: 5.0°C (41°F) [RH = 62%]
Pressure (altimeter): 29.85 inches Hg (1011.0 mb)
Winds: from the SSE (150 degrees) at 9 MPH (8 knots; 4.1 m/s)
Visibility: 6 or more miles (10+ km)
Ceiling: at least 12,000 feet AGL
Clouds: few clouds at 2000 feet AGL
scattered clouds at 15000 feet AGL
Weather: no significant weather observed at this time

METAR text: RJEB 160600Z 12006KT 9999 FEW020 SCT150 BKN/// 12/06 Q1012
Conditions at: RJEB (MONBETSU AIRPORT, JP) observed 0600 UTC 16 October 2021
Temperature: 12.0°C (54°F)
Dewpoint: 6.0°C (43°F) [RH = 67%]
Pressure (altimeter): 29.88 inches Hg (1012.0 mb)
Winds: from the ESE (120 degrees) at 7 MPH (6 knots; 3.1 m/s)
Visibility: 6 or more miles (10+ km)
Ceiling: at least 12,000 feet AGL
Clouds: few clouds at 2000 feet AGL
scattered clouds at 15000 feet AGL
Weather: no significant weather observed at this time

METAR text: RJEB 160500Z 12007KT 9999 FEW015 SCT150 BKN/// 12/05 Q1013
Conditions at: RJEB (MONBETSU AIRPORT, JP) observed 0500 UTC 16 October 2021
Temperature: 12.0°C (54°F)
Dewpoint: 5.0°C (41°F) [RH = 62%]
Pressure (altimeter): 29.91 inches Hg (1013.0 mb)
Winds: from the ESE (120 degrees) at 8 MPH (7 knots; 3.6 m/s)
Visibility: 6 or more miles (10+ km)
Ceiling: at least 12,000 feet AGL
Clouds: few clouds at 1500 feet AGL
scattered clouds at 15000 feet AGL
Weather: no significant weather observed at this time

METAR text: RJEB 160400Z 11008KT 9999 FEW015 SCT100 BKN/// 12/05 Q1014
Conditions at: RJEB (MONBETSU AIRPORT, JP) observed 0400 UTC 16 October 2021
Temperature: 12.0°C (54°F)
Dewpoint: 5.0°C (41°F) [RH = 62%]
Pressure (altimeter): 29.94 inches Hg (1014.0 mb)
Winds: from the ESE (110 degrees) at 9 MPH (8 knots; 4.1 m/s)
Visibility: 6 or more miles (10+ km)
Ceiling: at least 12,000 feet AGL
Clouds: few clouds at 1500 feet AGL
scattered clouds at 10000 feet AGL
Weather: no significant weather observed at this time

METAR text: RJEB 160300Z 11012KT 9999 FEW030 BKN/// 12/05 Q1015
Conditions at: RJEB (MONBETSU AIRPORT, JP) observed 0300 UTC 16 October 2021
Temperature: 12.0°C (54°F)
Dewpoint: 5.0°C (41°F) [RH = 62%]
Pressure (altimeter): 29.97 inches Hg (1015.0 mb)
Winds: from the ESE (110 degrees) at 14 MPH (12 knots; 6.2 m/s)
Visibility: 6 or more miles (10+ km)
Ceiling: at least 12,000 feet AGL
Clouds: few clouds at 3000 feet AGL
Weather: no significant weather observed at this time

METAR text: RJEB 160200Z 11010KT 9999 FEW030 BKN/// 11/04 Q1017
Conditions at: RJEB (MONBETSU AIRPORT, JP) observed 0200 UTC 16 October 2021
Temperature: 11.0°C (52°F)
Dewpoint: 4.0°C (39°F) [RH = 62%]
Pressure (altimeter): 30.03 inches Hg (1017.0 mb)
Winds: from the ESE (110 degrees) at 12 MPH (10 knots; 5.1 m/s)
Visibility: 6 or more miles (10+ km)
Ceiling: at least 12,000 feet AGL
Clouds: few clouds at 3000 feet AGL
Weather: no significant weather observed at this time

METAR text: RJEB 160100Z 13009KT 9999 FEW030 BKN/// 11/05 Q1018
Conditions at: RJEB (MONBETSU AIRPORT, JP) observed 0100 UTC 16 October 2021
Temperature: 11.0°C (52°F)
Dewpoint: 5.0°C (41°F) [RH = 66%]
Pressure (altimeter): 30.06 inches Hg (1018.0 mb)
Winds: from the SE (130 degrees) at 10 MPH (9 knots; 4.6 m/s)
Visibility: 6 or more miles (10+ km)
Ceiling: at least 12,000 feet AGL
Clouds: few clouds at 3000 feet AGL
Weather: no significant weather observed at this time

METAR text: RJEB 160000Z 14010KT 9999 FEW030 BKN/// 11/05 Q1019
Conditions at: RJEB (MONBETSU AIRPORT, JP) observed 0000 UTC 16 October 2021
Temperature: 11.0°C (52°F)
Dewpoint: 5.0°C (41°F) [RH = 66%]
Pressure (altimeter): 30.09 inches Hg (1019.0 mb)
Winds: from the SE (140 degrees) at 12 MPH (10 knots; 5.1 m/s)
Visibility: 6 or more miles (10+ km)
Ceiling: at least 12,000 feet AGL
Clouds: few clouds at 3000 feet AGL
Weather: no significant weather observed at this time